sensor_id;sensor_type;location;lat;lon;timestamp;P1;durP1;ratioP1;P2;durP2;ratioP2
53877;SDS011;39790;53.144;6.424;2022-07-22T00:01:56;9.10;;;3.13;;
53877;SDS011;39790;53.144;6.424;2022-07-22T00:04:22;8.98;;;2.90;;
53877;SDS011;39790;53.144;6.424;2022-07-22T00:06:47;6.38;;;2.45;;
53877;SDS011;39790;53.144;6.424;2022-07-22T00:09:13;6.25;;;2.85;;
53877;SDS011;39790;53.144;6.424;2022-07-22T00:11:39;5.65;;;2.80;;
53877;SDS011;39790;53.144;6.424;2022-07-22T00:14:05;5.85;;;2.25;;
53877;SDS011;39790;53.144;6.424;2022-07-22T00:16:30;6.95;;;2.63;;
53877;SDS011;39790;53.144;6.424;2022-07-22T00:18:57;9.00;;;2.85;;
53877;SDS011;39790;53.144;6.424;2022-07-22T00:21:23;9.63;;;2.88;;
53877;SDS011;39790;53.144;6.424;2022-07-22T00:23:48;5.28;;;2.55;;
53877;SDS011;39790;53.144;6.424;2022-07-22T00:26:14;4.53;;;2.13;;
53877;SDS011;39790;53.144;6.424;2022-07-22T00:28:39;6.80;;;2.70;;
53877;SDS011;39790;53.144;6.424;2022-07-22T00:31:05;5.25;;;2.40;;
53877;SDS011;39790;53.144;6.424;2022-07-22T00:33:31;6.97;;;2.30;;
53877;SDS011;39790;53.144;6.424;2022-07-22T00:35:56;6.80;;;2.85;;
53877;SDS011;39790;53.144;6.424;2022-07-22T00:38:22;12.15;;;2.42;;
53877;SDS011;39790;53.144;6.424;2022-07-22T00:40:48;6.50;;;2.45;;
53877;SDS011;39790;53.144;6.424;2022-07-22T00:43:13;5.80;;;2.00;;
53877;SDS011;39790;53.144;6.424;2022-07-22T00:45:39;4.95;;;2.55;;
53877;SDS011;39790;53.144;6.424;2022-07-22T00:48:05;4.63;;;2.30;;
53877;SDS011;39790;53.144;6.424;2022-07-22T00:50:31;7.85;;;2.58;;
53877;SDS011;39790;53.144;6.424;2022-07-22T00:52:56;6.90;;;2.35;;
53877;SDS011;39790;53.144;6.424;2022-07-22T00:55:22;5.60;;;2.30;;
53877;SDS011;39790;53.144;6.424;2022-07-22T00:57:48;6.30;;;2.42;;
53877;SDS011;39790;53.144;6.424;2022-07-22T01:00:15;4.97;;;2.72;;
53877;SDS011;39790;53.144;6.424;2022-07-22T01:02:43;6.82;;;2.38;;
53877;SDS011;39790;53.144;6.424;2022-07-22T01:05:08;4.93;;;2.08;;
53877;SDS011;39790;53.144;6.424;2022-07-22T01:07:36;5.70;;;2.50;;
53877;SDS011;39790;53.144;6.424;2022-07-22T01:10:03;6.90;;;2.53;;
53877;SDS011;39790;53.144;6.424;2022-07-22T01:12:29;4.97;;;2.10;;
53877;SDS011;39790;53.144;6.424;2022-07-22T01:14:55;4.93;;;2.38;;
53877;SDS011;39790;53.144;6.424;2022-07-22T01:17:20;6.78;;;2.00;;
53877;SDS011;39790;53.144;6.424;2022-07-22T01:19:46;4.40;;;2.00;;
53877;SDS011;39790;53.144;6.424;2022-07-22T01:22:12;6.05;;;2.13;;
53877;SDS011;39790;53.144;6.424;2022-07-22T01:24:38;3.90;;;1.88;;
53877;SDS011;39790;53.144;6.424;2022-07-22T01:27:03;8.13;;;2.38;;
53877;SDS011;39790;53.144;6.424;2022-07-22T01:29:29;5.28;;;2.00;;
53877;SDS011;39790;53.144;6.424;2022-07-22T01:31:55;6.60;;;1.63;;
53877;SDS011;39790;53.144;6.424;2022-07-22T01:34:21;6.82;;;2.13;;
53877;SDS011;39790;53.144;6.424;2022-07-22T01:36:47;5.25;;;2.03;;
53877;SDS011;39790;53.144;6.424;2022-07-22T01:39:13;7.97;;;2.25;;
53877;SDS011;39790;53.144;6.424;2022-07-22T01:41:39;5.10;;;1.90;;
53877;SDS011;39790;53.144;6.424;2022-07-22T01:44:05;3.90;;;1.50;;
53877;SDS011;39790;53.144;6.424;2022-07-22T01:46:30;3.40;;;1.67;;
53877;SDS011;39790;53.144;6.424;2022-07-22T01:48:56;4.18;;;1.80;;
53877;SDS011;39790;53.144;6.424;2022-07-22T01:51:22;4.50;;;1.83;;
53877;SDS011;39790;53.144;6.424;2022-07-22T01:53:48;9.43;;;2.35;;
53877;SDS011;39790;53.144;6.424;2022-07-22T01:56:14;4.32;;;1.70;;
53877;SDS011;39790;53.144;6.424;2022-07-22T01:58:40;8.57;;;2.28;;
53877;SDS011;39790;53.144;6.424;2022-07-22T02:01:06;4.28;;;1.88;;
53877;SDS011;39790;53.144;6.424;2022-07-22T02:03:32;6.18;;;1.88;;
53877;SDS011;39790;53.144;6.424;2022-07-22T02:05:58;7.20;;;1.90;;
53877;SDS011;39790;53.144;6.424;2022-07-22T02:08:23;6.85;;;1.92;;
53877;SDS011;39790;53.144;6.424;2022-07-22T02:10:49;4.18;;;2.08;;
53877;SDS011;39790;53.144;6.424;2022-07-22T02:13:15;4.70;;;1.92;;
53877;SDS011;39790;53.144;6.424;2022-07-22T02:15:40;6.93;;;1.77;;
53877;SDS011;39790;53.144;6.424;2022-07-22T02:18:13;5.65;;;2.03;;
53877;SDS011;39790;53.144;6.424;2022-07-22T02:20:43;5.50;;;2.00;;
53877;SDS011;39790;53.144;6.424;2022-07-22T02:23:09;3.00;;;1.50;;
53877;SDS011;39790;53.144;6.424;2022-07-22T02:25:39;6.28;;;2.03;;
53877;SDS011;39790;53.144;6.424;2022-07-22T02:28:06;5.88;;;1.70;;
53877;SDS011;39790;53.144;6.424;2022-07-22T02:30:32;4.25;;;1.50;;
53877;SDS011;39790;53.144;6.424;2022-07-22T02:32:57;3.05;;;1.60;;
53877;SDS011;39790;53.144;6.424;2022-07-22T02:35:23;7.22;;;1.67;;
53877;SDS011;39790;53.144;6.424;2022-07-22T02:37:49;3.92;;;2.00;;
53877;SDS011;39790;53.144;6.424;2022-07-22T02:40:15;6.43;;;1.85;;
53877;SDS011;39790;53.144;6.424;2022-07-22T02:42:41;6.88;;;1.63;;
53877;SDS011;39790;53.144;6.424;2022-07-22T02:45:06;5.80;;;1.83;;
53877;SDS011;39790;53.144;6.424;2022-07-22T02:47:32;4.15;;;2.00;;
53877;SDS011;39790;53.144;6.424;2022-07-22T02:49:58;8.07;;;2.05;;
53877;SDS011;39790;53.144;6.424;2022-07-22T02:52:23;3.30;;;1.58;;
53877;SDS011;39790;53.144;6.424;2022-07-22T02:54:49;4.97;;;1.83;;
53877;SDS011;39790;53.144;6.424;2022-07-22T02:57:15;3.58;;;1.20;;
53877;SDS011;39790;53.144;6.424;2022-07-22T02:59:40;3.03;;;1.60;;
53877;SDS011;39790;53.144;6.424;2022-07-22T03:02:06;7.43;;;1.70;;
53877;SDS011;39790;53.144;6.424;2022-07-22T03:04:31;4.80;;;1.80;;
53877;SDS011;39790;53.144;6.424;2022-07-22T03:06:57;7.32;;;1.63;;
53877;SDS011;39790;53.144;6.424;2022-07-22T03:09:23;5.32;;;1.92;;
53877;SDS011;39790;53.144;6.424;2022-07-22T03:11:48;6.28;;;1.75;;
53877;SDS011;39790;53.144;6.424;2022-07-22T03:14:14;4.50;;;2.00;;
53877;SDS011;39790;53.144;6.424;2022-07-22T03:16:41;5.38;;;1.40;;
53877;SDS011;39790;53.144;6.424;2022-07-22T03:19:07;3.78;;;1.63;;
53877;SDS011;39790;53.144;6.424;2022-07-22T03:21:32;2.65;;;1.40;;
53877;SDS011;39790;53.144;6.424;2022-07-22T03:23:58;4.40;;;1.92;;
53877;SDS011;39790;53.144;6.424;2022-07-22T03:26:24;5.93;;;1.88;;
53877;SDS011;39790;53.144;6.424;2022-07-22T03:28:50;4.55;;;1.63;;
53877;SDS011;39790;53.144;6.424;2022-07-22T03:31:17;6.22;;;1.55;;
53877;SDS011;39790;53.144;6.424;2022-07-22T03:33:42;8.48;;;1.63;;
53877;SDS011;39790;53.144;6.424;2022-07-22T03:36:08;6.60;;;1.85;;
53877;SDS011;39790;53.144;6.424;2022-07-22T03:38:34;4.07;;;1.52;;
53877;SDS011;39790;53.144;6.424;2022-07-22T03:41:00;4.22;;;1.80;;
53877;SDS011;39790;53.144;6.424;2022-07-22T03:43:26;3.40;;;1.58;;
53877;SDS011;39790;53.144;6.424;2022-07-22T03:45:52;5.22;;;2.60;;
53877;SDS011;39790;53.144;6.424;2022-07-22T03:48:17;3.15;;;1.35;;
53877;SDS011;39790;53.144;6.424;2022-07-22T03:50:43;4.40;;;2.05;;
53877;SDS011;39790;53.144;6.424;2022-07-22T03:53:09;3.60;;;1.25;;
53877;SDS011;39790;53.144;6.424;2022-07-22T03:55:34;3.55;;;1.70;;
53877;SDS011;39790;53.144;6.424;2022-07-22T03:58:00;6.50;;;1.75;;
53877;SDS011;39790;53.144;6.424;2022-07-22T04:00:25;3.38;;;1.30;;
53877;SDS011;39790;53.144;6.424;2022-07-22T04:02:51;2.92;;;1.85;;
53877;SDS011;39790;53.144;6.424;2022-07-22T04:05:17;5.10;;;1.67;;
53877;SDS011;39790;53.144;6.424;2022-07-22T04:07:42;3.40;;;1.52;;
53877;SDS011;39790;53.144;6.424;2022-07-22T04:10:08;4.35;;;2.08;;
53877;SDS011;39790;53.144;6.424;2022-07-22T04:12:34;4.72;;;1.77;;
53877;SDS011;39790;53.144;6.424;2022-07-22T04:15:02;4.18;;;1.98;;
53877;SDS011;39790;53.144;6.424;2022-07-22T04:17:30;5.22;;;1.83;;
53877;SDS011;39790;53.144;6.424;2022-07-22T04:19:56;3.92;;;1.50;;
53877;SDS011;39790;53.144;6.424;2022-07-22T04:22:22;3.83;;;1.90;;
53877;SDS011;39790;53.144;6.424;2022-07-22T04:24:48;4.90;;;1.75;;
53877;SDS011;39790;53.144;6.424;2022-07-22T04:27:13;3.50;;;1.58;;
53877;SDS011;39790;53.144;6.424;2022-07-22T04:29:39;3.70;;;1.75;;
53877;SDS011;39790;53.144;6.424;2022-07-22T04:32:05;2.85;;;1.52;;
53877;SDS011;39790;53.144;6.424;2022-07-22T04:34:30;6.78;;;1.90;;
53877;SDS011;39790;53.144;6.424;2022-07-22T04:36:56;6.70;;;2.08;;
53877;SDS011;39790;53.144;6.424;2022-07-22T04:39:22;2.97;;;1.30;;
53877;SDS011;39790;53.144;6.424;2022-07-22T04:41:47;5.07;;;1.90;;
53877;SDS011;39790;53.144;6.424;2022-07-22T04:44:13;3.33;;;1.48;;
53877;SDS011;39790;53.144;6.424;2022-07-22T04:46:38;7.30;;;1.60;;
53877;SDS011;39790;53.144;6.424;2022-07-22T04:49:04;6.57;;;1.58;;
53877;SDS011;39790;53.144;6.424;2022-07-22T04:51:30;5.90;;;2.33;;
53877;SDS011;39790;53.144;6.424;2022-07-22T04:53:55;3.38;;;1.60;;
53877;SDS011;39790;53.144;6.424;2022-07-22T04:56:21;5.00;;;1.60;;
53877;SDS011;39790;53.144;6.424;2022-07-22T04:58:46;3.13;;;1.70;;
53877;SDS011;39790;53.144;6.424;2022-07-22T05:01:12;7.55;;;2.13;;
53877;SDS011;39790;53.144;6.424;2022-07-22T05:03:38;5.22;;;2.05;;
53877;SDS011;39790;53.144;6.424;2022-07-22T05:06:04;5.25;;;1.80;;
53877;SDS011;39790;53.144;6.424;2022-07-22T05:08:30;5.25;;;1.52;;
53877;SDS011;39790;53.144;6.424;2022-07-22T05:10:56;5.25;;;1.80;;
53877;SDS011;39790;53.144;6.424;2022-07-22T05:13:21;5.75;;;1.80;;
53877;SDS011;39790;53.144;6.424;2022-07-22T05:15:48;4.93;;;1.45;;
53877;SDS011;39790;53.144;6.424;2022-07-22T05:18:13;3.42;;;1.45;;
53877;SDS011;39790;53.144;6.424;2022-07-22T05:20:39;5.68;;;1.90;;
53877;SDS011;39790;53.144;6.424;2022-07-22T05:23:04;5.28;;;1.67;;
53877;SDS011;39790;53.144;6.424;2022-07-22T05:25:30;5.78;;;1.83;;
53877;SDS011;39790;53.144;6.424;2022-07-22T05:27:56;6.10;;;1.95;;
53877;SDS011;39790;53.144;6.424;2022-07-22T05:30:21;2.42;;;1.40;;
53877;SDS011;39790;53.144;6.424;2022-07-22T05:32:47;3.53;;;1.60;;
53877;SDS011;39790;53.144;6.424;2022-07-22T05:35:13;4.47;;;1.67;;
53877;SDS011;39790;53.144;6.424;2022-07-22T05:37:38;2.67;;;1.30;;
53877;SDS011;39790;53.144;6.424;2022-07-22T05:40:04;7.18;;;1.95;;
53877;SDS011;39790;53.144;6.424;2022-07-22T05:42:30;2.83;;;1.38;;
53877;SDS011;39790;53.144;6.424;2022-07-22T05:44:56;2.63;;;1.50;;
53877;SDS011;39790;53.144;6.424;2022-07-22T05:47:21;5.97;;;1.23;;
53877;SDS011;39790;53.144;6.424;2022-07-22T05:49:47;4.85;;;1.50;;
53877;SDS011;39790;53.144;6.424;2022-07-22T05:52:12;3.30;;;1.63;;
53877;SDS011;39790;53.144;6.424;2022-07-22T05:54:38;6.25;;;1.48;;
53877;SDS011;39790;53.144;6.424;2022-07-22T05:57:04;4.07;;;1.58;;
53877;SDS011;39790;53.144;6.424;2022-07-22T05:59:33;2.45;;;1.17;;
53877;SDS011;39790;53.144;6.424;2022-07-22T06:01:58;3.65;;;1.52;;
53877;SDS011;39790;53.144;6.424;2022-07-22T06:04:24;3.70;;;1.77;;
53877;SDS011;39790;53.144;6.424;2022-07-22T06:06:50;6.00;;;2.13;;
53877;SDS011;39790;53.144;6.424;2022-07-22T06:09:15;4.10;;;1.60;;
53877;SDS011;39790;53.144;6.424;2022-07-22T06:11:41;6.53;;;1.90;;
53877;SDS011;39790;53.144;6.424;2022-07-22T06:14:06;4.75;;;1.80;;
53877;SDS011;39790;53.144;6.424;2022-07-22T06:16:32;5.30;;;1.58;;
53877;SDS011;39790;53.144;6.424;2022-07-22T06:18:59;5.65;;;1.15;;
53877;SDS011;39790;53.144;6.424;2022-07-22T06:21:24;5.93;;;1.77;;
53877;SDS011;39790;53.144;6.424;2022-07-22T06:23:50;5.03;;;1.15;;
53877;SDS011;39790;53.144;6.424;2022-07-22T06:26:15;6.32;;;1.92;;
53877;SDS011;39790;53.144;6.424;2022-07-22T06:28:41;3.15;;;1.33;;
53877;SDS011;39790;53.144;6.424;2022-07-22T06:31:07;3.22;;;1.63;;
53877;SDS011;39790;53.144;6.424;2022-07-22T06:33:32;3.17;;;1.38;;
53877;SDS011;39790;53.144;6.424;2022-07-22T06:35:58;5.20;;;1.60;;
53877;SDS011;39790;53.144;6.424;2022-07-22T06:38:25;5.07;;;1.52;;
53877;SDS011;39790;53.144;6.424;2022-07-22T06:40:50;3.72;;;1.48;;
53877;SDS011;39790;53.144;6.424;2022-07-22T06:43:16;2.72;;;1.50;;
53877;SDS011;39790;53.144;6.424;2022-07-22T06:45:41;3.15;;;1.35;;
53877;SDS011;39790;53.144;6.424;2022-07-22T06:48:07;3.20;;;1.30;;
53877;SDS011;39790;53.144;6.424;2022-07-22T06:50:33;3.63;;;1.50;;
53877;SDS011;39790;53.144;6.424;2022-07-22T06:52:58;2.47;;;1.30;;
53877;SDS011;39790;53.144;6.424;2022-07-22T06:55:24;2.88;;;1.40;;
53877;SDS011;39790;53.144;6.424;2022-07-22T06:57:49;3.20;;;1.50;;
53877;SDS011;39790;53.144;6.424;2022-07-22T07:00:15;4.70;;;1.60;;
53877;SDS011;39790;53.144;6.424;2022-07-22T07:02:41;2.60;;;1.30;;
53877;SDS011;39790;53.144;6.424;2022-07-22T07:05:07;5.75;;;1.20;;
53877;SDS011;39790;53.144;6.424;2022-07-22T07:07:33;3.05;;;1.50;;
53877;SDS011;39790;53.144;6.424;2022-07-22T07:09:58;3.45;;;1.50;;
53877;SDS011;39790;53.144;6.424;2022-07-22T07:12:24;5.75;;;1.90;;
53877;SDS011;39790;53.144;6.424;2022-07-22T07:14:49;2.65;;;1.30;;
53877;SDS011;39790;53.144;6.424;2022-07-22T07:17:15;3.92;;;1.52;;
53877;SDS011;39790;53.144;6.424;2022-07-22T07:19:41;4.25;;;1.50;;
53877;SDS011;39790;53.144;6.424;2022-07-22T07:22:06;4.03;;;1.55;;
53877;SDS011;39790;53.144;6.424;2022-07-22T07:24:32;2.97;;;1.38;;
53877;SDS011;39790;53.144;6.424;2022-07-22T07:26:58;2.40;;;1.45;;
53877;SDS011;39790;53.144;6.424;2022-07-22T07:29:23;5.72;;;1.50;;
53877;SDS011;39790;53.144;6.424;2022-07-22T07:31:49;4.97;;;1.45;;
53877;SDS011;39790;53.144;6.424;2022-07-22T07:34:14;4.05;;;1.60;;
53877;SDS011;39790;53.144;6.424;2022-07-22T07:36:40;5.95;;;1.45;;
53877;SDS011;39790;53.144;6.424;2022-07-22T07:39:06;2.83;;;1.33;;
53877;SDS011;39790;53.144;6.424;2022-07-22T07:41:31;6.13;;;1.95;;
53877;SDS011;39790;53.144;6.424;2022-07-22T07:43:57;3.65;;;1.30;;
53877;SDS011;39790;53.144;6.424;2022-07-22T07:46:23;5.32;;;1.42;;
53877;SDS011;39790;53.144;6.424;2022-07-22T07:48:48;4.65;;;1.30;;
53877;SDS011;39790;53.144;6.424;2022-07-22T07:51:14;6.00;;;1.13;;
53877;SDS011;39790;53.144;6.424;2022-07-22T07:53:40;5.90;;;1.17;;
53877;SDS011;39790;53.144;6.424;2022-07-22T07:56:05;3.90;;;1.52;;
53877;SDS011;39790;53.144;6.424;2022-07-22T07:58:31;5.05;;;1.70;;
53877;SDS011;39790;53.144;6.424;2022-07-22T08:00:57;6.05;;;1.60;;
53877;SDS011;39790;53.144;6.424;2022-07-22T08:03:23;5.38;;;1.20;;
53877;SDS011;39790;53.144;6.424;2022-07-22T08:05:48;3.72;;;1.35;;
53877;SDS011;39790;53.144;6.424;2022-07-22T08:08:14;3.70;;;1.45;;
53877;SDS011;39790;53.144;6.424;2022-07-22T08:10:40;4.50;;;1.48;;
53877;SDS011;39790;53.144;6.424;2022-07-22T08:13:05;5.15;;;1.75;;
53877;SDS011;39790;53.144;6.424;2022-07-22T08:15:31;6.43;;;1.70;;
53877;SDS011;39790;53.144;6.424;2022-07-22T08:17:57;7.65;;;1.50;;
53877;SDS011;39790;53.144;6.424;2022-07-22T08:20:23;4.78;;;1.52;;
53877;SDS011;39790;53.144;6.424;2022-07-22T08:22:50;2.33;;;1.02;;
53877;SDS011;39790;53.144;6.424;2022-07-22T08:25:16;4.07;;;1.45;;
53877;SDS011;39790;53.144;6.424;2022-07-22T08:27:42;5.18;;;1.67;;
53877;SDS011;39790;53.144;6.424;2022-07-22T08:30:08;3.78;;;1.50;;
53877;SDS011;39790;53.144;6.424;2022-07-22T08:32:34;3.67;;;1.23;;
53877;SDS011;39790;53.144;6.424;2022-07-22T08:35:00;3.63;;;1.42;;
53877;SDS011;39790;53.144;6.424;2022-07-22T08:37:26;2.35;;;1.20;;
53877;SDS011;39790;53.144;6.424;2022-07-22T08:39:51;3.28;;;1.10;;
53877;SDS011;39790;53.144;6.424;2022-07-22T08:42:18;2.90;;;1.20;;
53877;SDS011;39790;53.144;6.424;2022-07-22T08:44:46;3.72;;;1.35;;
53877;SDS011;39790;53.144;6.424;2022-07-22T08:47:13;4.95;;;1.40;;
53877;SDS011;39790;53.144;6.424;2022-07-22T08:49:38;4.38;;;1.65;;
53877;SDS011;39790;53.144;6.424;2022-07-22T08:52:04;3.83;;;1.88;;
53877;SDS011;39790;53.144;6.424;2022-07-22T08:54:30;3.65;;;1.27;;
53877;SDS011;39790;53.144;6.424;2022-07-22T08:56:55;3.35;;;1.10;;
53877;SDS011;39790;53.144;6.424;2022-07-22T08:59:21;3.90;;;1.27;;
53877;SDS011;39790;53.144;6.424;2022-07-22T09:04:32;4.55;;;1.73;;
53877;SDS011;39790;53.144;6.424;2022-07-22T09:07:30;4.68;;;1.40;;
53877;SDS011;39790;53.144;6.424;2022-07-22T09:09:56;5.97;;;1.35;;
53877;SDS011;39790;53.144;6.424;2022-07-22T09:12:23;3.42;;;1.17;;
53877;SDS011;39790;53.144;6.424;2022-07-22T09:14:53;5.40;;;1.40;;
53877;SDS011;39790;53.144;6.424;2022-07-22T09:17:52;2.00;;;1.00;;
53877;SDS011;39790;53.144;6.424;2022-07-22T09:20:15;3.33;;;1.25;;
53877;SDS011;39790;53.144;6.424;2022-07-22T09:22:43;1.77;;;1.08;;
53877;SDS011;39790;53.144;6.424;2022-07-22T09:27:51;2.25;;;1.00;;
53877;SDS011;39790;53.144;6.424;2022-07-22T09:30:25;4.15;;;1.30;;
53877;SDS011;39790;53.144;6.424;2022-07-22T09:32:52;3.88;;;1.17;;
53877;SDS011;39790;53.144;6.424;2022-07-22T09:35:19;3.38;;;1.45;;
53877;SDS011;39790;53.144;6.424;2022-07-22T09:37:58;2.60;;;1.00;;
53877;SDS011;39790;53.144;6.424;2022-07-22T09:40:33;2.08;;;1.05;;
53877;SDS011;39790;53.144;6.424;2022-07-22T09:43:04;2.58;;;1.00;;
53877;SDS011;39790;53.144;6.424;2022-07-22T09:45:32;5.53;;;1.10;;
53877;SDS011;39790;53.144;6.424;2022-07-22T09:47:59;4.75;;;1.08;;
53877;SDS011;39790;53.144;6.424;2022-07-22T09:50:26;1.65;;;0.80;;
53877;SDS011;39790;53.144;6.424;2022-07-22T09:52:53;2.35;;;0.90;;
53877;SDS011;39790;53.144;6.424;2022-07-22T09:55:21;2.17;;;0.80;;
53877;SDS011;39790;53.144;6.424;2022-07-22T09:57:49;4.75;;;1.05;;
53877;SDS011;39790;53.144;6.424;2022-07-22T10:00:17;2.72;;;1.00;;
53877;SDS011;39790;53.144;6.424;2022-07-22T10:02:46;2.13;;;1.15;;
53877;SDS011;39790;53.144;6.424;2022-07-22T10:05:17;3.20;;;0.90;;
53877;SDS011;39790;53.144;6.424;2022-07-22T10:07:45;1.70;;;0.98;;
53877;SDS011;39790;53.144;6.424;2022-07-22T10:10:16;2.63;;;0.82;;
53877;SDS011;39790;53.144;6.424;2022-07-22T10:12:44;1.92;;;0.80;;
53877;SDS011;39790;53.144;6.424;2022-07-22T10:15:12;2.10;;;0.90;;
53877;SDS011;39790;53.144;6.424;2022-07-22T10:17:40;2.50;;;0.80;;
53877;SDS011;39790;53.144;6.424;2022-07-22T10:20:08;2.70;;;1.17;;
53877;SDS011;39790;53.144;6.424;2022-07-22T10:25:03;6.97;;;1.60;;
53877;SDS011;39790;53.144;6.424;2022-07-22T10:30:20;3.17;;;1.23;;
53877;SDS011;39790;53.144;6.424;2022-07-22T10:38:19;3.70;;;1.27;;
53877;SDS011;39790;53.144;6.424;2022-07-22T10:43:20;2.45;;;1.20;;
53877;SDS011;39790;53.144;6.424;2022-07-22T10:45:59;3.00;;;1.25;;
53877;SDS011;39790;53.144;6.424;2022-07-22T10:51:06;6.60;;;1.75;;
53877;SDS011;39790;53.144;6.424;2022-07-22T10:58:41;2.40;;;1.23;;
53877;SDS011;39790;53.144;6.424;2022-07-22T11:01:08;2.88;;;1.10;;
53877;SDS011;39790;53.144;6.424;2022-07-22T11:03:36;3.30;;;1.25;;
53877;SDS011;39790;53.144;6.424;2022-07-22T11:06:16;4.30;;;1.02;;
53877;SDS011;39790;53.144;6.424;2022-07-22T11:09:05;3.30;;;0.80;;
53877;SDS011;39790;53.144;6.424;2022-07-22T11:11:33;2.50;;;1.00;;
53877;SDS011;39790;53.144;6.424;2022-07-22T11:14:11;5.40;;;1.13;;
53877;SDS011;39790;53.144;6.424;2022-07-22T11:16:37;3.63;;;1.02;;
53877;SDS011;39790;53.144;6.424;2022-07-22T11:19:03;2.75;;;0.93;;
53877;SDS011;39790;53.144;6.424;2022-07-22T11:21:30;3.03;;;0.90;;
53877;SDS011;39790;53.144;6.424;2022-07-22T11:23:57;4.82;;;1.08;;
53877;SDS011;39790;53.144;6.424;2022-07-22T11:26:37;2.88;;;0.95;;
53877;SDS011;39790;53.144;6.424;2022-07-22T11:32:00;2.00;;;1.20;;
53877;SDS011;39790;53.144;6.424;2022-07-22T11:34:28;2.20;;;0.93;;
53877;SDS011;39790;53.144;6.424;2022-07-22T11:36:54;3.03;;;1.05;;
53877;SDS011;39790;53.144;6.424;2022-07-22T11:39:22;3.05;;;1.10;;
53877;SDS011;39790;53.144;6.424;2022-07-22T11:41:51;3.05;;;0.98;;
53877;SDS011;39790;53.144;6.424;2022-07-22T11:44:20;2.15;;;1.10;;
53877;SDS011;39790;53.144;6.424;2022-07-22T11:46:47;3.45;;;1.02;;
53877;SDS011;39790;53.144;6.424;2022-07-22T11:49:18;2.40;;;0.93;;
53877;SDS011;39790;53.144;6.424;2022-07-22T11:51:45;1.55;;;0.85;;
53877;SDS011;39790;53.144;6.424;2022-07-22T11:54:11;4.30;;;0.95;;
53877;SDS011;39790;53.144;6.424;2022-07-22T11:56:37;2.40;;;1.00;;
53877;SDS011;39790;53.144;6.424;2022-07-22T11:59:03;3.53;;;0.77;;
53877;SDS011;39790;53.144;6.424;2022-07-22T12:01:35;2.10;;;0.93;;
53877;SDS011;39790;53.144;6.424;2022-07-22T12:04:02;2.15;;;1.05;;
53877;SDS011;39790;53.144;6.424;2022-07-22T12:06:31;2.45;;;0.90;;
53877;SDS011;39790;53.144;6.424;2022-07-22T12:09:03;5.35;;;1.05;;
53877;SDS011;39790;53.144;6.424;2022-07-22T12:11:34;3.25;;;0.95;;
53877;SDS011;39790;53.144;6.424;2022-07-22T12:14:07;1.55;;;0.80;;
53877;SDS011;39790;53.144;6.424;2022-07-22T12:16:35;5.88;;;1.25;;
53877;SDS011;39790;53.144;6.424;2022-07-22T12:19:05;2.88;;;0.70;;
53877;SDS011;39790;53.144;6.424;2022-07-22T12:21:35;7.22;;;1.92;;
53877;SDS011;39790;53.144;6.424;2022-07-22T12:24:14;1.70;;;0.80;;
53877;SDS011;39790;53.144;6.424;2022-07-22T12:26:41;3.03;;;0.70;;
53877;SDS011;39790;53.144;6.424;2022-07-22T12:29:15;1.23;;;0.63;;
53877;SDS011;39790;53.144;6.424;2022-07-22T12:31:46;1.48;;;0.77;;
53877;SDS011;39790;53.144;6.424;2022-07-22T12:34:13;3.17;;;0.90;;
53877;SDS011;39790;53.144;6.424;2022-07-22T12:36:44;3.03;;;0.90;;
53877;SDS011;39790;53.144;6.424;2022-07-22T12:39:15;1.77;;;0.68;;
53877;SDS011;39790;53.144;6.424;2022-07-22T12:41:46;2.90;;;0.60;;
53877;SDS011;39790;53.144;6.424;2022-07-22T12:44:16;2.42;;;0.65;;
53877;SDS011;39790;53.144;6.424;2022-07-22T12:46:47;2.25;;;0.60;;
53877;SDS011;39790;53.144;6.424;2022-07-22T12:49:16;2.53;;;0.70;;
53877;SDS011;39790;53.144;6.424;2022-07-22T12:54:32;1.23;;;0.50;;
53877;SDS011;39790;53.144;6.424;2022-07-22T12:56:58;0.95;;;0.60;;
53877;SDS011;39790;53.144;6.424;2022-07-22T12:59:24;3.90;;;0.80;;
53877;SDS011;39790;53.144;6.424;2022-07-22T13:01:51;2.08;;;0.68;;
53877;SDS011;39790;53.144;6.424;2022-07-22T13:04:16;0.95;;;0.52;;
53877;SDS011;39790;53.144;6.424;2022-07-22T13:06:42;1.20;;;0.65;;
53877;SDS011;39790;53.144;6.424;2022-07-22T13:09:07;2.13;;;0.52;;
53877;SDS011;39790;53.144;6.424;2022-07-22T13:11:33;1.90;;;0.70;;
53877;SDS011;39790;53.144;6.424;2022-07-22T13:14:04;1.48;;;0.77;;
53877;SDS011;39790;53.144;6.424;2022-07-22T13:16:33;1.73;;;0.80;;
53877;SDS011;39790;53.144;6.424;2022-07-22T13:18:58;1.23;;;0.60;;
53877;SDS011;39790;53.144;6.424;2022-07-22T13:21:24;1.38;;;0.60;;
53877;SDS011;39790;53.144;6.424;2022-07-22T13:23:50;0.80;;;0.60;;
53877;SDS011;39790;53.144;6.424;2022-07-22T13:26:16;2.28;;;0.60;;
53877;SDS011;39790;53.144;6.424;2022-07-22T13:28:41;2.40;;;0.80;;
53877;SDS011;39790;53.144;6.424;2022-07-22T13:31:08;2.08;;;0.88;;
53877;SDS011;39790;53.144;6.424;2022-07-22T13:33:34;2.67;;;0.82;;
53877;SDS011;39790;53.144;6.424;2022-07-22T13:36:00;3.38;;;1.10;;
53877;SDS011;39790;53.144;6.424;2022-07-22T13:38:26;2.83;;;0.88;;
53877;SDS011;39790;53.144;6.424;2022-07-22T13:40:51;1.25;;;0.60;;
53877;SDS011;39790;53.144;6.424;2022-07-22T13:43:19;2.67;;;1.00;;
53877;SDS011;39790;53.144;6.424;2022-07-22T13:45:45;2.20;;;1.00;;
53877;SDS011;39790;53.144;6.424;2022-07-22T13:48:11;1.80;;;0.80;;
53877;SDS011;39790;53.144;6.424;2022-07-22T13:50:37;2.10;;;1.05;;
53877;SDS011;39790;53.144;6.424;2022-07-22T13:53:02;1.85;;;1.00;;
53877;SDS011;39790;53.144;6.424;2022-07-22T13:55:28;3.38;;;0.98;;
53877;SDS011;39790;53.144;6.424;2022-07-22T13:57:55;3.47;;;1.23;;
53877;SDS011;39790;53.144;6.424;2022-07-22T14:00:22;3.75;;;1.02;;
53877;SDS011;39790;53.144;6.424;2022-07-22T14:02:49;3.90;;;1.10;;
53877;SDS011;39790;53.144;6.424;2022-07-22T14:05:15;4.57;;;1.20;;
53877;SDS011;39790;53.144;6.424;2022-07-22T14:07:40;4.20;;;1.08;;
53877;SDS011;39790;53.144;6.424;2022-07-22T14:10:06;4.05;;;1.58;;
53877;SDS011;39790;53.144;6.424;2022-07-22T14:12:32;2.40;;;1.15;;
53877;SDS011;39790;53.144;6.424;2022-07-22T14:14:58;2.85;;;1.33;;
53877;SDS011;39790;53.144;6.424;2022-07-22T14:17:23;2.20;;;1.45;;
53877;SDS011;39790;53.144;6.424;2022-07-22T14:19:49;2.20;;;0.93;;
53877;SDS011;39790;53.144;6.424;2022-07-22T14:22:15;2.47;;;1.00;;
53877;SDS011;39790;53.144;6.424;2022-07-22T14:24:40;3.22;;;1.27;;
53877;SDS011;39790;53.144;6.424;2022-07-22T14:27:06;4.25;;;1.15;;
53877;SDS011;39790;53.144;6.424;2022-07-22T14:29:31;4.22;;;0.88;;
53877;SDS011;39790;53.144;6.424;2022-07-22T14:31:57;1.80;;;0.95;;
53877;SDS011;39790;53.144;6.424;2022-07-22T14:34:22;3.03;;;1.20;;
53877;SDS011;39790;53.144;6.424;2022-07-22T14:36:48;3.05;;;0.93;;
53877;SDS011;39790;53.144;6.424;2022-07-22T14:39:13;3.03;;;1.00;;
53877;SDS011;39790;53.144;6.424;2022-07-22T14:41:39;4.30;;;1.40;;
53877;SDS011;39790;53.144;6.424;2022-07-22T14:44:05;5.68;;;0.93;;
53877;SDS011;39790;53.144;6.424;2022-07-22T14:46:30;2.78;;;0.82;;
53877;SDS011;39790;53.144;6.424;2022-07-22T14:48:56;4.80;;;1.30;;
53877;SDS011;39790;53.144;6.424;2022-07-22T14:51:22;3.38;;;1.10;;
53877;SDS011;39790;53.144;6.424;2022-07-22T14:53:48;5.07;;;1.00;;
53877;SDS011;39790;53.144;6.424;2022-07-22T14:56:15;2.42;;;1.13;;
53877;SDS011;39790;53.144;6.424;2022-07-22T14:58:40;4.03;;;1.10;;
53877;SDS011;39790;53.144;6.424;2022-07-22T15:01:06;5.85;;;0.95;;
53877;SDS011;39790;53.144;6.424;2022-07-22T15:03:32;4.43;;;1.20;;
53877;SDS011;39790;53.144;6.424;2022-07-22T15:05:57;3.65;;;1.30;;
53877;SDS011;39790;53.144;6.424;2022-07-22T15:08:23;6.38;;;1.10;;
53877;SDS011;39790;53.144;6.424;2022-07-22T15:10:48;4.20;;;1.40;;
53877;SDS011;39790;53.144;6.424;2022-07-22T15:13:14;3.20;;;1.52;;
53877;SDS011;39790;53.144;6.424;2022-07-22T15:15:40;4.72;;;0.95;;
53877;SDS011;39790;53.144;6.424;2022-07-22T15:18:06;4.13;;;1.10;;